createdAt,value
2023-02-22T00:00:59.752Z,100633.16
2023-02-22T00:03:32.386Z,100621.00
2023-02-22T00:06:04.135Z,100636.94
2023-02-22T00:08:35.515Z,100642.25
2023-02-22T00:11:08.399Z,100639.59
2023-02-22T00:13:36.391Z,100644.91
2023-02-22T00:16:04.633Z,100668.78
2023-02-22T00:18:32.444Z,100682.16
2023-02-22T00:21:01.733Z,100690.19
2023-02-22T00:23:32.830Z,100695.44
2023-02-22T00:26:02.253Z,100689.25
2023-02-22T00:28:30.786Z,100689.38
2023-02-22T00:30:59.990Z,100680.69
2023-02-22T00:33:27.861Z,100658.09
2023-02-22T00:35:55.587Z,100657.69
2023-02-22T00:38:23.840Z,100669.50
2023-02-22T00:40:51.885Z,100705.94
2023-02-22T00:43:21.064Z,100709.00
2023-02-22T00:45:49.224Z,100726.81
2023-02-22T00:48:16.999Z,100719.88
2023-02-22T00:50:44.676Z,100734.94
2023-02-22T00:53:12.674Z,100760.53
2023-02-22T00:55:41.649Z,100767.59
2023-02-22T00:58:10.102Z,100771.97
2023-02-22T01:00:41.729Z,100770.25
2023-02-22T01:03:11.561Z,100788.59
2023-02-22T01:05:39.968Z,100800.09
2023-02-22T01:08:09.696Z,100778.94
2023-02-22T01:10:39.015Z,100792.28
2023-02-22T01:13:11.982Z,100809.81
2023-02-22T01:15:45.028Z,100812.41
2023-02-22T01:18:17.148Z,100806.16
2023-02-22T01:20:48.119Z,100804.31
2023-02-22T01:23:17.497Z,100773.56
2023-02-22T01:25:45.387Z,100758.53
2023-02-22T01:28:13.974Z,100753.25
2023-02-22T01:30:43.221Z,100753.31
2023-02-22T01:33:12.916Z,100765.66
2023-02-22T01:35:41.992Z,100773.63
2023-02-22T01:38:10.302Z,100776.22
2023-02-22T01:40:41.962Z,100779.75
2023-02-22T01:43:21.048Z,100773.63
2023-02-22T01:46:03.724Z,100780.47
2023-02-22T01:48:36.587Z,100769.84
2023-02-22T01:51:10.814Z,100783.09
2023-02-22T01:53:42.950Z,100784.03
2023-02-22T01:56:11.812Z,100770.13
2023-02-22T01:58:44.154Z,100749.03
2023-02-22T02:01:14.693Z,100763.19
2023-02-22T02:03:43.447Z,100768.44
2023-02-22T02:06:15.424Z,100786.16
2023-02-22T02:08:51.540Z,100803.75
2023-02-22T02:11:24.638Z,100819.66
2023-02-22T02:13:55.050Z,100833.69
2023-02-22T02:16:25.949Z,100836.34
2023-02-22T02:18:53.891Z,100832.69
2023-02-22T02:21:59.437Z,100815.91
2023-02-22T02:25:05.081Z,100801.00
2023-02-22T02:27:47.517Z,100805.53
2023-02-22T02:30:44.303Z,100776.66
2023-02-22T02:33:24.374Z,100776.78
2023-02-22T02:36:00.418Z,100787.47
2023-02-22T02:38:36.077Z,100784.81
2023-02-22T02:41:11.779Z,100804.25
2023-02-22T02:43:47.189Z,100799.16
2023-02-22T02:46:20.218Z,100792.28
2023-02-22T02:48:54.884Z,100814.44
2023-02-22T02:51:25.781Z,100825.19
2023-02-22T02:53:54.106Z,100829.66
2023-02-22T02:56:23.430Z,100841.16
2023-02-22T02:58:53.051Z,100846.50
2023-02-22T03:01:33.528Z,100850.97
2023-02-22T03:04:24.664Z,100845.69
2023-02-22T03:07:10.173Z,100849.13
2023-02-22T03:09:47.273Z,100857.91
2023-02-22T03:12:29.273Z,100859.59
2023-02-22T03:15:07.245Z,100835.72
2023-02-22T03:17:42.473Z,100832.00
2023-02-22T03:20:18.356Z,100804.81
2023-02-22T03:22:53.302Z,100801.25
2023-02-22T03:25:25.640Z,100777.44
2023-02-22T03:28:02.327Z,100756.97
2023-02-22T03:30:37.904Z,100742.00
2023-02-22T03:33:12.461Z,100724.63
2023-02-22T03:35:48.174Z,100715.56
2023-02-22T03:38:20.856Z,100745.84
2023-02-22T03:40:54.443Z,100789.09
2023-02-22T03:43:26.678Z,100821.78
2023-02-22T03:45:55.363Z,100854.34
2023-02-22T03:48:28.322Z,100871.00
2023-02-22T03:50:58.460Z,100885.91
2023-02-22T03:53:26.563Z,100897.31
2023-02-22T03:55:58.264Z,100891.09
2023-02-22T03:58:30.190Z,100884.09
2023-02-22T04:00:58.295Z,100894.59
2023-02-22T04:03:26.088Z,100866.66
2023-02-22T04:05:53.946Z,100857.22
2023-02-22T04:08:23.157Z,100879.31
2023-02-22T04:10:51.019Z,100887.25
2023-02-22T04:13:19.002Z,100900.47
2023-02-22T04:15:46.802Z,100911.09
2023-02-22T04:18:15.210Z,100902.41
2023-02-22T04:20:43.208Z,100920.97
2023-02-22T04:23:11.331Z,100907.06
2023-02-22T04:25:40.409Z,100918.56
2023-02-22T04:28:08.244Z,100915.19
2023-02-22T04:30:36.317Z,100918.00
2023-02-22T04:33:04.145Z,100933.00
2023-02-22T04:35:35.074Z,100934.75
2023-02-22T04:38:04.266Z,100939.25
2023-02-22T04:40:32.214Z,100936.75
2023-02-22T04:43:01.549Z,100941.31
2023-02-22T04:45:29.774Z,100942.38
2023-02-22T04:47:57.607Z,100940.72
2023-02-22T04:50:25.508Z,100946.06
2023-02-22T04:52:53.292Z,100938.22
2023-02-22T04:55:22.446Z,100949.75
2023-02-22T04:57:50.254Z,100950.75
2023-02-22T05:00:21.740Z,100953.50
2023-02-22T05:02:51.371Z,100954.47
2023-02-22T05:05:21.358Z,100971.28
2023-02-22T05:07:49.361Z,100981.00
2023-02-22T05:10:17.844Z,101001.22
2023-02-22T05:12:45.795Z,101015.22
2023-02-22T05:15:19.980Z,101026.56
2023-02-22T05:17:48.385Z,101024.84
2023-02-22T05:20:22.317Z,101014.25
2023-02-22T05:22:51.895Z,101007.25
2023-02-22T05:25:21.450Z,101010.84
2023-02-22T05:27:53.103Z,101009.06
2023-02-22T05:30:24.703Z,101031.03
2023-02-22T05:32:53.070Z,101038.00
2023-02-22T05:35:22.499Z,101046.72
2023-02-22T05:37:50.734Z,101065.09
2023-02-22T05:40:19.753Z,101055.34
2023-02-22T05:42:49.078Z,101050.91
2023-02-22T05:45:18.841Z,101038.50
2023-02-22T05:47:48.086Z,101032.34
2023-02-22T05:50:16.244Z,101013.81
2023-02-22T05:52:44.037Z,101009.47
2023-02-22T05:55:14.190Z,101005.06
2023-02-22T05:57:42.074Z,101005.06
2023-02-22T06:00:11.469Z,101015.66
2023-02-22T06:02:39.273Z,101020.94
2023-02-22T06:05:09.587Z,101042.06
2023-02-22T06:07:37.480Z,101041.25
2023-02-22T06:10:05.789Z,101036.91
2023-02-22T06:12:33.668Z,101064.97
2023-02-22T06:15:01.460Z,101069.31
2023-02-22T06:17:30.501Z,101071.00
2023-02-22T06:19:58.305Z,101071.75
2023-02-22T06:22:27.535Z,101055.78
2023-02-22T06:24:55.523Z,101052.16
2023-02-22T06:27:23.411Z,101025.69
2023-02-22T06:29:51.202Z,101026.53
2023-02-22T06:32:19.008Z,101028.19
2023-02-22T06:34:47.149Z,101023.78
2023-02-22T06:37:14.822Z,101024.59
2023-02-22T06:39:43.972Z,101038.63
2023-02-22T06:42:11.792Z,101036.88
2023-02-22T06:44:39.527Z,101064.88
2023-02-22T06:47:07.377Z,101074.41
2023-02-22T06:49:35.100Z,101074.22
2023-02-22T06:52:05.082Z,101074.97
2023-02-22T06:54:33.016Z,101065.13
2023-02-22T06:57:02.235Z,101051.69
2023-02-22T06:59:30.056Z,101057.59
2023-02-22T07:01:57.803Z,101040.69
2023-02-22T07:04:25.711Z,101038.69
2023-02-22T07:06:53.453Z,101035.78
2023-02-22T07:09:21.339Z,101037.28
2023-02-22T07:11:49.097Z,101047.56
2023-02-22T07:14:19.225Z,101040.16
2023-02-22T07:16:47.013Z,101036.47
2023-02-22T07:19:14.739Z,101030.94
2023-02-22T07:21:42.478Z,101021.09
2023-02-22T07:24:10.296Z,101014.69
2023-02-22T07:26:41.396Z,101025.03
2023-02-22T07:29:11.282Z,101014.25
2023-02-22T07:31:40.709Z,101007.97
2023-02-22T07:34:08.397Z,100995.53
2023-02-22T07:36:36.124Z,100986.50
2023-02-22T07:39:03.860Z,100989.94
2023-02-22T07:41:31.659Z,100974.06
2023-02-22T07:43:59.424Z,100974.16
2023-02-22T07:46:27.291Z,100981.16
2023-02-22T07:48:56.412Z,100973.13
2023-02-22T07:51:24.146Z,100952.91
2023-02-22T07:53:52.016Z,100941.47
2023-02-22T07:56:19.847Z,100954.69
2023-02-22T07:58:47.635Z,100942.28
2023-02-22T08:01:15.613Z,100954.59
2023-02-22T08:03:47.495Z,100940.34
2023-02-22T08:06:16.864Z,100963.19
2023-02-22T08:08:44.779Z,100972.75
2023-02-22T08:11:12.717Z,100958.44
2023-02-22T08:13:40.752Z,100970.63
2023-02-22T08:16:08.541Z,100965.16
2023-02-22T08:18:38.307Z,100951.78
2023-02-22T08:21:06.492Z,100936.72
2023-02-22T08:23:35.725Z,100940.06
2023-02-22T08:26:07.708Z,100941.81
2023-02-22T08:28:35.565Z,100939.97
2023-02-22T08:31:03.465Z,100932.81
2023-02-22T08:33:31.359Z,100959.06
2023-02-22T08:35:59.270Z,100948.25
2023-02-22T08:38:29.516Z,100953.25
2023-02-22T08:40:58.954Z,100971.47
2023-02-22T08:43:28.558Z,100956.22
2023-02-22T08:45:57.801Z,100939.09
2023-02-22T08:48:25.924Z,100906.28
2023-02-22T08:50:53.746Z,100914.91
2023-02-22T08:53:21.534Z,100883.75
2023-02-22T08:55:51.362Z,100895.09
2023-02-22T08:58:20.608Z,100883.34
2023-02-22T09:00:49.205Z,100859.38
2023-02-22T09:03:17.056Z,100829.16
2023-02-22T09:05:45.963Z,100815.84
2023-02-22T09:08:14.565Z,100815.75
2023-02-22T09:10:42.651Z,100833.16
2023-02-22T09:13:10.584Z,100782.81
2023-02-22T09:15:40.735Z,100812.66
2023-02-22T09:18:10.193Z,100777.16
2023-02-22T09:20:38.291Z,100775.25
2023-02-22T09:23:09.766Z,100772.31
2023-02-22T09:25:38.811Z,100765.13
2023-02-22T09:28:07.060Z,100753.34
2023-02-22T09:30:36.393Z,100780.41
2023-02-22T09:33:09.982Z,100793.25
2023-02-22T09:35:42.086Z,100746.91
2023-02-22T09:38:11.501Z,100697.13
2023-02-22T09:40:45.237Z,100677.59
2023-02-22T09:43:35.675Z,100694.13
2023-02-22T09:46:19.394Z,100664.78
2023-02-22T09:48:59.199Z,100641.44
2023-02-22T09:51:30.581Z,100621.22
2023-02-22T09:54:02.384Z,100656.88
2023-02-22T09:56:33.850Z,100645.94
2023-02-22T09:59:04.991Z,100616.66
2023-02-22T10:01:36.485Z,100619.19
2023-02-22T10:04:18.520Z,100580.13
2023-02-22T10:07:02.082Z,100595.00
2023-02-22T10:09:30.362Z,100596.28
2023-02-22T10:12:01.796Z,100562.16
2023-02-22T10:14:48.562Z,100509.63
2023-02-22T10:17:27.456Z,100503.22
2023-02-22T10:20:11.831Z,100478.72
2023-02-22T10:22:53.291Z,100520.66
2023-02-22T10:25:25.290Z,100478.00
2023-02-22T10:27:59.449Z,100465.34
2023-02-22T10:30:33.835Z,100515.44
2023-02-22T10:33:13.556Z,100502.59
2023-02-22T10:35:45.335Z,100507.78
2023-02-22T10:38:20.264Z,100494.72
2023-02-22T10:40:53.127Z,100423.19
2023-02-22T10:43:20.947Z,100400.59
2023-02-22T10:45:50.383Z,100376.28
2023-02-22T10:48:21.248Z,100252.31
2023-02-22T10:50:50.633Z,100295.84
2023-02-22T10:53:18.641Z,100304.16
2023-02-22T10:56:10.161Z,100262.47
2023-02-22T10:58:43.507Z,100310.88
2023-02-22T11:01:23.183Z,100210.47
2023-02-22T11:04:11.634Z,100229.00
2023-02-22T11:06:42.569Z,100201.03
2023-02-22T11:09:14.191Z,100146.66
2023-02-22T11:11:45.150Z,100140.03
2023-02-22T11:14:16.304Z,100079.66
2023-02-22T11:16:48.680Z,100021.09
2023-02-22T11:19:24.130Z,99996.56
2023-02-22T11:21:56.684Z,100057.56
2023-02-22T11:24:37.263Z,100073.56
2023-02-22T11:27:25.359Z,100040.19
2023-02-22T11:29:53.760Z,100037.81
2023-02-22T11:32:23.263Z,100117.31
2023-02-22T11:35:03.455Z,100106.31
2023-02-22T11:37:40.466Z,100057.97
2023-02-22T11:40:17.812Z,99968.50
2023-02-22T11:42:46.128Z,99958.59
2023-02-22T11:45:17.242Z,99906.38
2023-02-22T11:47:52.626Z,99897.94
2023-02-22T11:50:29.352Z,99967.38
2023-02-22T11:53:14.589Z,99901.66
2023-02-22T11:55:53.221Z,99945.22
2023-02-22T11:58:37.675Z,99903.13
2023-02-22T12:01:17.555Z,99846.50
2023-02-22T12:04:17.130Z,99814.13
2023-02-22T12:06:53.953Z,99815.44
2023-02-22T12:09:33.767Z,99849.09
2023-02-22T12:12:16.210Z,99920.69
2023-02-22T12:14:56.748Z,99866.06
2023-02-22T12:17:38.996Z,99863.88
2023-02-22T12:20:18.750Z,99777.88
2023-02-22T12:22:54.988Z,99790.47
2023-02-22T12:25:29.494Z,99859.38
2023-02-22T12:28:02.214Z,99761.88
2023-02-22T12:30:39.258Z,99755.59
2023-02-22T12:33:15.708Z,99735.84
2023-02-22T12:35:50.434Z,99724.41
2023-02-22T12:38:24.146Z,99732.97
2023-02-22T12:40:59.650Z,99727.56
2023-02-22T12:43:32.296Z,99772.38
2023-02-22T12:46:05.651Z,99750.56
2023-02-22T12:48:43.394Z,99798.47
2023-02-22T12:51:23.915Z,99857.84
2023-02-22T12:54:01.305Z,99742.34
2023-02-22T12:56:35.338Z,99733.66
2023-02-22T12:59:19.956Z,99721.97
2023-02-22T13:01:55.050Z,99708.25
2023-02-22T13:04:23.258Z,99805.53
2023-02-22T13:07:02.797Z,99759.88
2023-02-22T13:09:56.509Z,99772.53
2023-02-22T13:12:37.568Z,99769.88
2023-02-22T13:15:15.914Z,99766.34
2023-02-22T13:17:53.282Z,99788.00
2023-02-22T13:20:26.013Z,99827.16
2023-02-22T13:23:00.448Z,99767.91
2023-02-22T13:25:37.174Z,99757.59
2023-02-22T13:28:19.653Z,99785.88
2023-02-22T13:30:59.132Z,99757.38
2023-02-22T13:33:39.529Z,99760.63
2023-02-22T13:36:19.323Z,99756.81
2023-02-22T13:39:05.575Z,99769.97
2023-02-22T13:41:55.253Z,99744.25
2023-02-22T13:44:44.155Z,99758.72
2023-02-22T13:47:49.789Z,99796.16
2023-02-22T13:50:35.443Z,99787.59
2023-02-22T13:53:09.822Z,99843.31
2023-02-22T13:55:42.206Z,99779.31
2023-02-22T13:58:12.938Z,99769.47
2023-02-22T14:00:45.808Z,99809.13
2023-02-22T14:03:36.148Z,99802.72
2023-02-22T14:06:05.742Z,99827.34
2023-02-22T14:08:42.090Z,99818.09
2023-02-22T14:11:42.980Z,99850.75
2023-02-22T14:14:13.017Z,99883.75
2023-02-22T14:16:42.415Z,99843.13
2023-02-22T14:19:16.937Z,99835.59
2023-02-22T14:22:02.003Z,99894.97
2023-02-22T14:24:31.793Z,99884.66
2023-02-22T14:27:03.434Z,99922.78
2023-02-22T14:29:32.478Z,99950.38
2023-02-22T14:32:13.031Z,99914.00
2023-02-22T14:34:49.428Z,99829.09
2023-02-22T14:37:21.094Z,99808.94
2023-02-22T14:39:51.402Z,99840.25
2023-02-22T14:42:25.070Z,99876.81
2023-02-22T14:44:59.622Z,99876.06
2023-02-22T14:47:39.857Z,99863.69
2023-02-22T14:50:23.232Z,99903.41
2023-02-22T14:53:01.597Z,99874.34
2023-02-22T14:55:32.338Z,99888.81
2023-02-22T14:58:08.629Z,99901.94
2023-02-22T15:00:42.095Z,99850.13
2023-02-22T15:03:29.324Z,99887.25
2023-02-22T15:06:00.084Z,99854.00
2023-02-22T15:08:29.189Z,99886.84
2023-02-22T15:10:56.952Z,99885.34
2023-02-22T15:13:26.872Z,99861.34
2023-02-22T15:16:00.341Z,99844.75
2023-02-22T15:18:35.068Z,99873.13
2023-02-22T15:21:10.110Z,99895.50
2023-02-22T15:23:46.152Z,99885.78
2023-02-22T15:26:19.442Z,99885.19
2023-02-22T15:28:48.458Z,99903.66
2023-02-22T15:31:18.981Z,99889.75
2023-02-22T15:33:48.450Z,99864.03
2023-02-22T15:36:18.038Z,99858.03
2023-02-22T15:38:50.279Z,99846.59
2023-02-22T15:41:28.880Z,99802.44
2023-02-22T15:44:17.833Z,99795.47
2023-02-22T15:46:51.040Z,99753.13
2023-02-22T15:49:24.339Z,99748.84
2023-02-22T15:52:05.218Z,99734.19
2023-02-22T15:54:41.328Z,99730.06
2023-02-22T15:57:09.931Z,99689.63
2023-02-22T15:59:44.778Z,99710.44
2023-02-22T16:02:30.995Z,99722.41
2023-02-22T16:05:04.031Z,99735.28
2023-02-22T16:07:32.279Z,99761.41
2023-02-22T16:10:08.021Z,99769.00
2023-02-22T16:12:36.321Z,99795.94
2023-02-22T16:15:04.582Z,99833.53
2023-02-22T16:17:37.235Z,99864.94
2023-02-22T16:20:34.247Z,99907.84
2023-02-22T16:23:22.499Z,99916.16
2023-02-22T16:26:03.406Z,99938.69
2023-02-22T16:28:33.925Z,99945.94
2023-02-22T16:31:01.916Z,99952.19
2023-02-22T16:33:33.671Z,99955.75
2023-02-22T16:36:08.400Z,99948.69
2023-02-22T16:38:38.405Z,99955.88
2023-02-22T16:41:07.796Z,99948.25
2023-02-22T16:43:36.421Z,99961.69
2023-02-22T16:46:06.901Z,99971.69
2023-02-22T16:48:38.124Z,99988.75
2023-02-22T16:51:14.816Z,99999.44
2023-02-22T16:53:42.790Z,99999.69
2023-02-22T16:56:12.776Z,100016.72
2023-02-22T16:58:42.054Z,100011.72
2023-02-22T17:01:12.573Z,100041.88
2023-02-22T17:03:40.694Z,100050.19
2023-02-22T17:06:11.113Z,100074.41
2023-02-22T17:08:39.398Z,100095.78
2023-02-22T17:11:08.402Z,100104.84
2023-02-22T17:13:36.586Z,100105.94
2023-02-22T17:16:05.557Z,100110.50
2023-02-22T17:18:34.428Z,100106.22
2023-02-22T17:21:03.624Z,100118.84
2023-02-22T17:23:32.919Z,100118.84
2023-02-22T17:26:02.424Z,100122.59
2023-02-22T17:28:30.710Z,100128.09
2023-02-22T17:31:03.632Z,100134.34
2023-02-22T17:33:33.756Z,100145.06
2023-02-22T17:36:02.998Z,100139.81
2023-02-22T17:38:32.616Z,100139.88
2023-02-22T17:41:01.412Z,100137.28
2023-02-22T17:43:29.762Z,100141.88
2023-02-22T17:45:58.307Z,100142.81
2023-02-22T17:48:27.108Z,100158.81
2023-02-22T17:50:55.105Z,100157.16
2023-02-22T17:53:25.089Z,100150.19
2023-02-22T17:55:54.613Z,100163.53
2023-02-22T17:58:24.183Z,100173.34
2023-02-22T18:00:57.122Z,100188.56
2023-02-22T18:03:26.470Z,100192.22
2023-02-22T18:05:57.256Z,100190.75
2023-02-22T18:08:25.499Z,100216.41
2023-02-22T18:10:56.422Z,100216.59
2023-02-22T18:13:26.488Z,100218.50
2023-02-22T18:15:56.599Z,100252.28
2023-02-22T18:18:24.392Z,100246.25
2023-02-22T18:20:55.565Z,100255.25
2023-02-22T18:23:27.864Z,100279.16
2023-02-22T18:26:10.190Z,100280.31
2023-02-22T18:28:38.741Z,100293.47
2023-02-22T18:31:08.770Z,100290.94
2023-02-22T18:33:36.825Z,100289.34
2023-02-22T18:36:05.144Z,100291.25
2023-02-22T18:38:33.112Z,100304.59
2023-02-22T18:41:03.640Z,100301.19
2023-02-22T18:43:34.172Z,100309.31
2023-02-22T18:46:09.027Z,100317.28
2023-02-22T18:48:37.364Z,100311.31
2023-02-22T18:51:07.231Z,100329.88
2023-02-22T18:53:36.675Z,100336.00
2023-02-22T18:56:08.434Z,100322.03
2023-02-22T18:58:38.813Z,100339.69
2023-02-22T19:01:07.726Z,100329.16
2023-02-22T19:03:38.463Z,100327.47
2023-02-22T19:06:08.898Z,100330.91
2023-02-22T19:08:39.641Z,100317.75
2023-02-22T19:11:11.489Z,100316.00
2023-02-22T19:13:39.534Z,100302.97
2023-02-22T19:16:08.235Z,100326.66
2023-02-22T19:18:35.955Z,100316.03
2023-02-22T19:21:08.475Z,100291.50
2023-02-22T19:23:38.092Z,100289.94
2023-02-22T19:26:10.434Z,100301.41
2023-02-22T19:28:38.271Z,100291.78
2023-02-22T19:31:14.850Z,100296.34
2023-02-22T19:33:43.265Z,100292.13
2023-02-22T19:36:12.512Z,100301.75
2023-02-22T19:38:40.685Z,100293.88
2023-02-22T19:41:12.391Z,100285.97
2023-02-22T19:43:40.500Z,100293.06
2023-02-22T19:46:08.881Z,100293.13
2023-02-22T19:48:36.772Z,100294.69
2023-02-22T19:51:06.244Z,100297.16
2023-02-22T19:53:34.282Z,100272.50
2023-02-22T19:56:06.829Z,100268.22
2023-02-22T19:58:37.582Z,100255.06
2023-02-22T20:01:13.319Z,100258.66
2023-02-22T20:03:42.184Z,100270.97
2023-02-22T20:06:10.990Z,100263.16
2023-02-22T20:08:42.073Z,100271.16
2023-02-22T20:11:10.841Z,100267.78
2023-02-22T20:13:41.273Z,100267.81
2023-02-22T20:16:10.934Z,100272.28
2023-02-22T20:18:38.804Z,100271.50
2023-02-22T20:21:10.877Z,100267.31
2023-02-22T20:23:40.629Z,100275.38
2023-02-22T20:26:16.180Z,100287.81
2023-02-22T20:28:45.515Z,100278.38
2023-02-22T20:31:15.494Z,100296.13
2023-02-22T20:33:45.694Z,100293.59
2023-02-22T20:36:15.315Z,100291.78
2023-02-22T20:38:43.597Z,100284.81
2023-02-22T20:41:15.365Z,100271.56
2023-02-22T20:43:43.326Z,100259.25
2023-02-22T20:46:12.763Z,100242.56
2023-02-22T20:48:40.897Z,100243.53
2023-02-22T20:51:09.508Z,100228.63
2023-02-22T20:53:39.346Z,100226.00
2023-02-22T20:56:07.818Z,100217.19
2023-02-22T20:58:35.653Z,100211.94
2023-02-22T21:01:07.460Z,100201.44
2023-02-22T21:03:37.054Z,100199.78
2023-02-22T21:06:06.077Z,100190.97
2023-02-22T21:08:34.522Z,100189.31
2023-02-22T21:11:02.311Z,100183.19
2023-02-22T21:13:30.160Z,100180.53
2023-02-22T21:15:58.002Z,100174.50
2023-02-22T21:18:25.833Z,100167.44
2023-02-22T21:20:54.956Z,100154.22
2023-02-22T21:23:22.872Z,100143.69
2023-02-22T21:25:51.662Z,100136.84
2023-02-22T21:28:19.578Z,100139.69
2023-02-22T21:30:48.152Z,100132.78
2023-02-22T21:33:16.924Z,100131.09
2023-02-22T21:35:47.084Z,100132.13
2023-02-22T21:38:16.351Z,100128.69
2023-02-22T21:40:47.287Z,100125.34
2023-02-22T21:43:16.578Z,100128.03
2023-02-22T21:45:44.883Z,100121.03
2023-02-22T21:48:12.569Z,100122.88
2023-02-22T21:50:40.741Z,100123.78
2023-02-22T21:53:08.596Z,100105.38
2023-02-22T21:55:38.267Z,100117.75
2023-02-22T21:58:06.496Z,100112.50
2023-02-22T22:00:38.359Z,100097.53
2023-02-22T22:03:09.577Z,100080.16
2023-02-22T22:05:40.514Z,100086.34
2023-02-22T22:08:08.490Z,100082.81
2023-02-22T22:10:37.664Z,100076.69
2023-02-22T22:13:06.213Z,100070.72
2023-02-22T22:15:36.899Z,100076.81
2023-02-22T22:18:06.674Z,100064.56
2023-02-22T22:20:37.863Z,100057.72
2023-02-22T22:23:06.435Z,100068.28
2023-02-22T22:25:38.100Z,100066.63
2023-02-22T22:28:08.716Z,100066.63
2023-02-22T22:30:37.219Z,100073.72
2023-02-22T22:33:08.369Z,100070.25
2023-02-22T22:35:39.091Z,100071.25
2023-02-22T22:38:09.365Z,100083.66
2023-02-22T22:40:38.950Z,100101.25
2023-02-22T22:43:08.694Z,100097.81
2023-02-22T22:45:36.600Z,100109.25
2023-02-22T22:48:04.612Z,100119.84
2023-02-22T22:50:32.599Z,100125.22
2023-02-22T22:53:00.409Z,100139.38
2023-02-22T22:55:28.183Z,100159.56
2023-02-22T22:57:55.989Z,100156.97
2023-02-22T23:00:32.296Z,100152.66
2023-02-22T23:03:00.282Z,100164.25
2023-02-22T23:05:29.280Z,100180.88
2023-02-22T23:07:58.018Z,100189.81
2023-02-22T23:10:28.111Z,100207.38
2023-02-22T23:12:57.336Z,100206.66
2023-02-22T23:15:26.642Z,100226.88
2023-02-22T23:17:56.074Z,100227.84
2023-02-22T23:20:26.530Z,100231.47
2023-02-22T23:22:58.166Z,100248.19
2023-02-22T23:25:26.091Z,100254.41
2023-02-22T23:27:54.828Z,100263.19
2023-02-22T23:30:22.643Z,100259.84
2023-02-22T23:32:52.198Z,100274.78
2023-02-22T23:35:20.239Z,100289.75
2023-02-22T23:37:53.059Z,100290.66
2023-02-22T23:40:21.096Z,100293.41
2023-02-22T23:42:50.092Z,100310.13
2023-02-22T23:45:23.604Z,100314.56
2023-02-22T23:47:55.817Z,100323.31
2023-02-22T23:50:25.465Z,100330.34
2023-02-22T23:52:57.706Z,100329.47
2023-02-22T23:55:26.205Z,100333.91
2023-02-22T23:57:59.142Z,100335.66
